Time;durP1;ratioP1;P1;durP2;ratioP2;P2;SDS_P1;SDS_P2;PMS_P1;PMS_P2;Temp;Humidity;BMP_temperature;BMP_pressure;BME280_temperature;BME280_humidity;BME280_pressure;Samples;Min_cycle;Max_cycle;Signal;HPM_P1;HPM_P2
2023/08/05 00:04:50;;;;;;;;;;;;;;;22.39;54.39;95388.00;10444511;28;2101;-68
2023/08/05 00:09:51;;;;;;;;;;;;;;;22.38;54.14;95399.63;10439101;28;1973;-67
2023/08/05 00:14:51;;;;;;;;;;;;;;;22.39;54.15;95398.56;10447574;28;1956;-67
2023/08/05 00:19:51;;;;;;;;;;;;;;;22.39;54.09;95395.91;10449304;28;2092;-68
2023/08/05 00:24:52;;;;;;;;;;;;;;;22.38;54.32;95394.34;10441540;28;1867;-67
2023/08/05 00:29:53;;;;;;;;;;;;;;;22.39;54.12;95395.13;10450014;28;2194;-67
2023/08/05 00:34:53;;;;;;;;;;;;;;;22.39;54.16;95397.78;10433606;28;1947;-68
2023/08/05 00:39:54;;;;;;;;;;;;;;;22.38;53.96;95396.97;10435601;28;1949;-67
2023/08/05 00:44:54;;;;;;;;;;;;;;;22.38;54.04;95399.63;10484192;28;4565;-68
2023/08/05 00:49:54;;;;;;;;;;;;;;;22.38;54.07;95396.97;10443667;28;2248;-67
2023/08/05 00:54:55;;;;;;;;;;;;;;;22.38;54.15;95389.06;10444209;28;1883;-67
2023/08/05 00:59:55;;;;;;;;;;;;;;;22.38;53.95;95383.03;10444145;28;1836;-67
2023/08/05 01:04:55;;;;;;;;;;;;;;;22.38;53.99;95383.03;10449115;28;1906;-67
2023/08/05 01:09:55;;;;;;;;;;;;;;;22.38;53.79;95383.03;10445464;28;1973;-67
2023/08/05 01:14:56;;;;;;;;;;;;;;;22.37;53.89;95361.09;10489566;28;1888;-68
2023/08/05 01:19:56;;;;;;;;;;;;;;;22.36;53.88;95356.88;10448082;28;2128;-67
2023/08/05 01:24:58;;;;;;;;;;;;;;;22.37;53.73;95350.53;10444187;28;1883;-68
2023/08/05 01:29:58;;;;;;;;;;;;;;;22.36;53.78;95338.41;10484650;28;1909;-67
2023/08/05 01:34:58;;;;;;;;;;;;;;;22.38;53.62;95332.84;10461538;28;1937;-68
2023/08/05 01:39:59;;;;;;;;;;;;;;;22.37;53.68;95312.78;10479687;28;1992;-68
2023/08/05 01:44:59;;;;;;;;;;;;;;;22.37;53.59;95310.94;10444048;28;4502;-68
2023/08/05 01:49:59;;;;;;;;;;;;;;;22.37;53.53;95310.13;10450866;28;1906;-68
2023/08/05 01:55:00;;;;;;;;;;;;;;;22.36;53.47;95305.94;10446154;28;1898;-67
2023/08/05 02:00:00;;;;;;;;;;;;;;;22.35;53.59;95307.81;10441867;28;1883;-66
2023/08/05 02:05:00;;;;;;;;;;;;;;;22.35;53.55;95305.16;10443106;28;2008;-68
2023/08/05 02:10:00;;;;;;;;;;;;;;;22.36;53.65;95295.38;10446890;28;1972;-67
2023/08/05 02:15:01;;;;;;;;;;;;;;;22.36;53.73;95282.19;10446972;28;1902;-67
2023/08/05 02:20:01;;;;;;;;;;;;;;;22.37;53.66;95276.59;10479537;28;2143;-68
2023/08/05 02:25:01;;;;;;;;;;;;;;;22.35;53.57;95297.25;10453563;28;1822;-67
2023/08/05 02:30:01;;;;;;;;;;;;;;;22.36;53.53;95306.72;10442916;28;1942;-68
2023/08/05 02:35:02;;;;;;;;;;;;;;;22.35;53.51;95318.38;10468125;28;2056;-67
2023/08/05 02:40:03;;;;;;;;;;;;;;;22.36;53.44;95327.84;10440260;28;2293;-68
2023/08/05 02:45:03;;;;;;;;;;;;;;;22.35;53.55;95336.84;10449120;28;4506;-67
2023/08/05 02:50:05;;;;;;;;;;;;;;;22.35;53.63;95347.41;10462022;28;1977;-68
2023/08/05 02:55:06;;;;;;;;;;;;;;;22.34;53.38;95329.22;10442931;28;2015;-67
2023/08/05 03:00:07;;;;;;;;;;;;;;;22.34;53.67;95323.94;10447629;28;1990;-67
2023/08/05 03:05:07;;;;;;;;;;;;;;;22.35;53.38;95331.56;10450908;28;1862;-68
2023/08/05 03:10:08;;;;;;;;;;;;;;;22.35;53.51;95336.06;10449812;28;1958;-68
2023/08/05 03:15:08;;;;;;;;;;;;;;;22.35;53.31;95346.63;10427910;28;1988;-68
2023/08/05 03:20:25;;;;;;;;;;;;;;;22.35;53.43;95351.91;10449475;28;1873;-67
2023/08/05 03:25:25;;;;;;;;;;;;;;;22.35;53.47;95381.75;10449983;28;1997;-67
2023/08/05 03:30:25;;;;;;;;;;;;;;;22.35;53.26;95378.31;10475611;28;1909;-67
2023/08/05 03:35:26;;;;;;;;;;;;;;;22.34;53.27;95374.88;10446359;28;6662;-67
2023/08/05 03:40:26;;;;;;;;;;;;;;;22.34;53.22;95353.75;10438940;28;5683;-67
2023/08/05 03:45:26;;;;;;;;;;;;;;;22.35;53.58;95362.47;10444841;28;1957;-67
2023/08/05 03:50:28;;;;;;;;;;;;;;;22.34;53.54;95350.34;10443926;28;3759;-68
2023/08/05 03:55:29;;;;;;;;;;;;;;;22.34;53.23;95361.69;10446121;28;1875;-67
2023/08/05 04:00:29;;;;;;;;;;;;;;;22.33;53.48;95370.69;10449251;28;1933;-69
2023/08/05 04:05:29;;;;;;;;;;;;;;;22.33;53.26;95378.63;10449803;28;1929;-67
2023/08/05 04:10:31;;;;;;;;;;;;;;;22.34;53.19;95382.03;10445255;28;5855;-67
2023/08/05 04:15:33;;;;;;;;;;;;;;;22.34;53.12;95387.31;10444672;28;2123;-67
2023/08/05 04:20:38;;;;;;;;;;;;;;;22.33;53.28;95386.53;10444212;28;1862;-67
2023/08/05 04:25:39;;;;;;;;;;;;;;;22.33;53.16;95383.91;10441666;28;2018;-67
2023/08/05 04:30:40;;;;;;;;;;;;;;;22.33;53.45;95370.69;10451001;28;1964;-67
2023/08/05 04:35:47;;;;;;;;;;;;;;;22.33;53.33;95373.34;10474408;28;1837;-67
2023/08/05 04:40:47;;;;;;;;;;;;;;;22.33;53.05;95375.19;10449461;28;6827;-68
2023/08/05 04:45:50;;;;;;;;;;;;;;;22.33;53.06;95380.47;10446724;28;1901;-67
2023/08/05 04:50:50;;;;;;;;;;;;;;;22.33;53.27;95367.25;10441374;28;2022;-68
2023/08/05 04:55:51;;;;;;;;;;;;;;;22.32;52.98;95360.41;10445723;28;1931;-67
2023/08/05 05:00:55;;;;;;;;;;;;;;;22.32;53.03;95353.25;10446425;28;2047;-68
2023/08/05 05:05:55;;;;;;;;;;;;;;;22.31;52.96;95356.22;10443671;28;1881;-67
2023/08/05 05:10:56;;;;;;;;;;;;;;;22.32;52.97;95370.97;10445268;28;1959;-67
2023/08/05 05:15:56;;;;;;;;;;;;;;;22.31;52.89;95359.63;10448561;28;2056;-67
2023/08/05 05:20:56;;;;;;;;;;;;;;;22.31;52.92;95357.00;10458564;28;1855;-67
2023/08/05 05:25:57;;;;;;;;;;;;;;;22.31;52.93;95357.00;10453556;28;1958;-67
2023/08/05 05:31:01;;;;;;;;;;;;;;;22.31;52.93;95372.84;10446367;28;1906;-66
2023/08/05 05:36:01;;;;;;;;;;;;;;;22.31;53.04;95356.22;10447000;28;2513;-68
2023/08/05 05:41:02;;;;;;;;;;;;;;;22.30;52.90;95358.06;10448507;28;5263;-69
2023/08/05 05:46:02;;;;;;;;;;;;;;;22.31;52.93;95359.63;10454131;28;1811;-67
2023/08/05 05:51:03;;;;;;;;;;;;;;;22.31;52.72;95378.13;10448223;28;1971;-67
2023/08/05 05:56:04;;;;;;;;;;;;;;;22.31;52.71;95386.03;10455927;28;1814;-67
2023/08/05 06:01:05;;;;;;;;;;;;;;;22.32;53.03;95395.50;10448227;28;1861;-67
2023/08/05 06:06:05;;;;;;;;;;;;;;;22.31;52.88;95386.03;10454410;28;2148;-67
2023/08/05 06:11:07;;;;;;;;;;;;;;;22.32;52.62;95384.16;10485831;28;1959;-67
2023/08/05 06:16:07;;;;;;;;;;;;;;;22.31;52.79;95369.41;10478521;28;1969;-68
2023/08/05 06:21:07;;;;;;;;;;;;;;;22.31;52.57;95383.41;10449126;28;1946;-67
2023/08/05 06:26:07;;;;;;;;;;;;;;;22.31;52.53;95386.03;10449425;28;1893;-68
2023/08/05 06:31:08;;;;;;;;;;;;;;;22.31;52.50;95393.97;10443770;28;1968;-68
2023/08/05 06:36:08;;;;;;;;;;;;;;;22.31;52.60;95406.38;10456344;28;2448;-67
2023/08/05 06:41:08;;;;;;;;;;;;;;;22.30;52.68;95413.50;10447415;28;4593;-67
2023/08/05 06:46:08;;;;;;;;;;;;;;;22.31;52.56;95415.09;10447679;28;1912;-67
2023/08/05 06:51:09;;;;;;;;;;;;;;;22.30;52.76;95399.53;10450723;28;1948;-67
2023/08/05 06:56:09;;;;;;;;;;;;;;;22.31;52.57;95393.19;10445008;28;1882;-67
2023/08/05 07:01:09;;;;;;;;;;;;;;;22.30;52.32;95396.88;10449752;28;1878;-69
2023/08/05 07:06:10;;;;;;;;;;;;;;;22.30;52.31;95402.94;10449967;28;1876;-70
2023/08/05 07:11:10;;;;;;;;;;;;;;;22.30;52.32;95410.88;10452613;28;1992;-69
2023/08/05 07:16:10;;;;;;;;;;;;;;;22.29;52.37;95409.31;10454756;28;1866;-67
2023/08/05 07:21:11;;;;;;;;;;;;;;;22.31;52.42;95414.31;10454031;28;1881;-68
2023/08/05 07:26:11;;;;;;;;;;;;;;;22.30;52.53;95410.06;10452641;28;1798;-68
2023/08/05 07:31:11;;;;;;;;;;;;;;;22.30;52.28;95394.25;10442636;28;2312;-67
2023/08/05 07:36:12;;;;;;;;;;;;;;;22.29;52.38;95388.19;10449313;28;1982;-68
2023/08/05 07:41:12;;;;;;;;;;;;;;;22.30;52.10;95394.25;10427480;28;4537;-67
2023/08/05 07:46:13;;;;;;;;;;;;;;;22.29;52.21;95396.13;10449307;28;1882;-67
2023/08/05 07:51:13;;;;;;;;;;;;;;;22.31;52.22;95415.09;10451631;28;1945;-68
2023/08/05 07:56:14;;;;;;;;;;;;;;;22.30;52.28;95410.88;10442004;28;1854;-68
2023/08/05 08:01:24;;;;;;;;;;;;;;;22.29;52.12;95413.81;10438046;28;1854;-68
2023/08/05 08:06:24;;;;;;;;;;;;;;;22.30;52.14;95416.16;10466649;28;1977;-67
2023/08/05 08:11:25;;;;;;;;;;;;;;;22.30;52.07;95407.44;10446033;28;1912;-69
2023/08/05 08:16:25;;;;;;;;;;;;;;;22.30;52.12;95418.00;10444216;28;2041;-68
2023/08/05 08:21:25;;;;;;;;;;;;;;;22.29;52.04;95411.16;10440601;28;1962;-67
2023/08/05 08:26:25;;;;;;;;;;;;;;;22.29;51.97;95411.97;10438322;28;2503;-68
2023/08/05 08:31:31;;;;;;;;;;;;;;;22.29;51.97;95395.31;10439463;28;2057;-68
2023/08/05 08:36:32;;;;;;;;;;;;;;;22.29;52.00;95390.03;10442447;28;1930;-67
2023/08/05 08:41:34;;;;;;;;;;;;;;;22.29;52.06;95395.31;10441727;28;4557;-67
2023/08/05 08:46:34;;;;;;;;;;;;;;;22.29;51.92;95401.41;10473408;28;1980;-68
2023/08/05 08:51:34;;;;;;;;;;;;;;;22.29;51.97;95401.41;10440339;28;1906;-68
2023/08/05 08:56:36;;;;;;;;;;;;;;;22.29;52.01;95396.13;10441636;28;2157;-68
2023/08/05 09:01:37;;;;;;;;;;;;;;;22.30;51.88;95386.31;10442260;28;1908;-68
2023/08/05 09:06:39;;;;;;;;;;;;;;;22.30;52.12;95381.03;10437971;28;1888;-69
2023/08/05 09:11:39;;;;;;;;;;;;;;;22.30;52.16;95392.38;10441778;28;1910;-67
2023/08/05 09:16:59;;;;;;;;;;;;;;;22.31;52.33;95379.97;10454377;28;1822;-67
2023/08/05 09:22:00;;;;;;;;;;;;;;;22.31;51.96;95386.03;10432367;28;2472;-68
2023/08/05 09:27:01;;;;;;;;;;;;;;;22.31;51.78;95393.19;10450061;28;1992;-68
2023/08/05 09:32:01;;;;;;;;;;;;;;;22.30;52.16;95387.09;10457489;28;1921;-67
2023/08/05 09:37:02;;;;;;;;;;;;;;;22.31;51.81;95383.41;10448661;28;1823;-67
2023/08/05 09:42:03;;;;;;;;;;;;;;;22.30;51.89;95381.81;10449754;28;1878;-67
2023/08/05 09:47:07;;;;;;;;;;;;;;;22.31;51.83;95372.84;10452422;28;1906;-67
2023/08/05 09:52:09;;;;;;;;;;;;;;;22.30;51.81;95376.53;10452278;28;2161;-68
2023/08/05 09:57:10;;;;;;;;;;;;;;;22.31;52.07;95382.63;10446679;28;1908;-66
2023/08/05 10:02:12;;;;;;;;;;;;;;;22.30;52.18;95381.81;10478622;28;1842;-66
2023/08/05 10:07:12;;;;;;;;;;;;;;;22.31;51.97;95388.69;10482251;28;1914;-66
2023/08/05 10:12:13;;;;;;;;;;;;;;;22.31;51.89;95391.31;10450860;28;1887;-66
2023/08/05 10:17:14;;;;;;;;;;;;;;;22.30;51.95;95389.75;10450391;28;1838;-66
2023/08/05 10:22:14;;;;;;;;;;;;;;;22.31;51.92;95385.25;10451924;28;1866;-67
2023/08/05 10:27:14;;;;;;;;;;;;;;;22.30;52.04;95376.53;10437952;28;2106;-66
2023/08/05 10:32:15;;;;;;;;;;;;;;;22.31;51.91;95369.41;10445467;28;1887;-67
2023/08/05 10:37:15;;;;;;;;;;;;;;;22.30;51.91;95358.06;10439138;28;1888;-66
2023/08/05 10:42:36;;;;;;;;;;;;;;;22.31;51.86;95364.91;10449062;28;4612;-67
2023/08/05 10:47:41;;;;;;;;;;;;;;;22.30;52.04;95350.13;10448800;28;1969;-68
2023/08/05 10:52:41;;;;;;;;;;;;;;;22.31;52.21;95330.59;10473765;28;1865;-67
2023/08/05 10:57:41;;;;;;;;;;;;;;;22.30;51.96;95330.88;10454817;28;1815;-67
2023/08/05 11:02:41;;;;;;;;;;;;;;;22.31;52.03;95330.59;10446864;28;1902;-67
2023/08/05 11:07:42;;;;;;;;;;;;;;;22.30;51.95;95313.16;10443151;28;1917;-66
2023/08/05 11:12:43;;;;;;;;;;;;;;;22.30;51.83;95307.88;10451164;28;1877;-69
2023/08/05 11:17:53;;;;;;;;;;;;;;;22.31;51.83;95304.19;10452599;28;1861;-68
2023/08/05 11:22:54;;;;;;;;;;;;;;;22.30;52.11;95296.53;10481608;28;1945;-68
2023/08/05 11:27:55;;;;;;;;;;;;;;;22.30;52.00;95286.78;10470464;28;1914;-68
2023/08/05 11:32:56;;;;;;;;;;;;;;;22.32;52.04;95291.75;10477959;28;1963;-68
2023/08/05 11:37:56;;;;;;;;;;;;;;;22.30;51.79;95286.78;10445884;28;1910;-68
2023/08/05 11:42:57;;;;;;;;;;;;;;;22.31;52.03;95282.28;10451762;28;4588;-67
2023/08/05 11:47:57;;;;;;;;;;;;;;;22.30;51.78;95276.19;10470256;28;1975;-67
2023/08/05 11:53:04;;;;;;;;;;;;;;;22.31;51.81;95269.88;10439821;28;1831;-68
2023/08/05 11:58:05;;;;;;;;;;;;;;;22.32;51.90;95263.50;10452966;28;1669;-67
2023/08/05 12:03:05;;;;;;;;;;;;;;;22.31;51.83;95254.03;10438939;28;1870;-67
2023/08/05 12:08:05;;;;;;;;;;;;;;;22.31;51.83;95240.81;10443211;28;1902;-68
2023/08/05 12:13:08;;;;;;;;;;;;;;;22.31;51.78;95240.03;10448781;28;2811;-67
2023/08/05 12:18:08;;;;;;;;;;;;;;;22.31;51.67;95240.03;10442163;28;2011;-68
2023/08/05 12:23:08;;;;;;;;;;;;;;;22.31;51.69;95227.63;10441178;28;1979;-67
2023/08/05 12:28:09;;;;;;;;;;;;;;;22.32;51.66;95225.72;10438671;28;1910;-67
2023/08/05 12:33:09;;;;;;;;;;;;;;;22.32;51.94;95212.53;10438105;28;2132;-68
2023/08/05 12:38:09;;;;;;;;;;;;;;;22.31;51.74;95238.19;10447387;28;1861;-68
2023/08/05 12:43:09;;;;;;;;;;;;;;;22.31;52.04;95261.94;10442868;28;4800;-66
2023/08/05 12:48:10;;;;;;;;;;;;;;;22.32;51.73;95267.97;10441466;28;1902;-66
2023/08/05 12:53:10;;;;;;;;;;;;;;;22.30;52.05;95265.66;10438711;28;1857;-67
2023/08/05 12:58:10;;;;;;;;;;;;;;;22.31;51.81;95267.22;10444074;28;1944;-67
2023/08/05 13:03:10;;;;;;;;;;;;;;;22.31;51.62;95266.44;10452179;28;1943;-67
2023/08/05 13:08:11;;;;;;;;;;;;;;;22.31;51.76;95271.72;10440541;28;2313;-67
2023/08/05 13:13:12;;;;;;;;;;;;;;;22.31;51.75;95277.78;10451332;28;1924;-67
2023/08/05 13:18:12;;;;;;;;;;;;;;;22.31;51.66;95272.50;10447771;28;2049;-68
2023/08/05 13:23:12;;;;;;;;;;;;;;;22.31;51.69;95269.06;10450609;28;2108;-67
2023/08/05 13:28:12;;;;;;;;;;;;;;;22.30;51.75;95263.00;10445938;28;1924;-67
2023/08/05 13:33:13;;;;;;;;;;;;;;;22.31;51.90;95267.22;10449901;28;1859;-67
2023/08/05 13:38:13;;;;;;;;;;;;;;;22.31;51.69;95261.94;10445736;28;1856;-67
2023/08/05 13:43:13;;;;;;;;;;;;;;;22.29;51.75;95245.63;10446063;28;4557;-67
2023/08/05 13:48:13;;;;;;;;;;;;;;;22.30;51.69;95244.53;10459321;28;1914;-67
2023/08/05 13:53:14;;;;;;;;;;;;;;;22.30;51.81;95243.72;10457047;28;1955;-67
2023/08/05 13:58:14;;;;;;;;;;;;;;;22.31;51.56;95240.03;10449983;28;1921;-67
2023/08/05 14:03:15;;;;;;;;;;;;;;;22.30;51.59;95233.97;10445620;28;2327;-66
2023/08/05 14:08:15;;;;;;;;;;;;;;;22.30;51.74;95233.97;10445433;28;1917;-67
2023/08/05 14:13:15;;;;;;;;;;;;;;;22.30;51.60;95233.97;10449713;28;2053;-67
2023/08/05 14:18:15;;;;;;;;;;;;;;;22.30;51.91;95239.25;10442519;28;1931;-67
2023/08/05 14:23:16;;;;;;;;;;;;;;;22.29;51.70;95237.69;10447625;28;1997;-67
2023/08/05 14:28:17;;;;;;;;;;;;;;;22.30;51.76;95230.53;10447409;28;1951;-67
2023/08/05 14:33:18;;;;;;;;;;;;;;;22.30;51.62;95233.97;10447123;28;2081;-68
2023/08/05 14:38:18;;;;;;;;;;;;;;;22.30;51.77;95241.09;10443615;28;1862;-67
2023/08/05 14:43:18;;;;;;;;;;;;;;;22.31;51.55;95243.47;10448322;28;4605;-67
2023/08/05 14:48:19;;;;;;;;;;;;;;;22.30;51.74;95244.53;10444275;28;2036;-68
2023/08/05 14:53:19;;;;;;;;;;;;;;;22.30;51.74;95235.81;10441917;28;1823;-67
2023/08/05 14:58:19;;;;;;;;;;;;;;;22.29;52.00;95237.69;10446889;28;1918;-67
2023/08/05 15:03:19;;;;;;;;;;;;;;;22.29;51.70;95236.91;10452269;28;2128;-68
2023/08/05 15:08:20;;;;;;;;;;;;;;;22.29;51.71;95248.25;10439966;28;1998;-69
2023/08/05 15:13:20;;;;;;;;;;;;;;;22.29;51.78;95244.81;10463663;28;2017;-68
2023/08/05 15:18:20;;;;;;;;;;;;;;;22.29;51.58;95240.34;10473753;28;1875;-67
2023/08/05 15:23:20;;;;;;;;;;;;;;;22.29;51.80;95239.53;10451001;28;1870;-67
2023/08/05 15:28:21;;;;;;;;;;;;;;;22.30;51.64;95235.81;10443476;28;1913;-67
2023/08/05 15:33:24;;;;;;;;;;;;;;;22.29;51.80;95229.78;10435004;28;2048;-67
2023/08/05 15:38:24;;;;;;;;;;;;;;;22.29;51.84;95213.13;10435498;28;1886;-67
2023/08/05 15:43:24;;;;;;;;;;;;;;;22.29;51.91;95207.84;10450589;28;4450;-67
2023/08/05 15:48:24;;;;;;;;;;;;;;;22.28;51.54;95207.06;10447613;28;1906;-69
2023/08/05 15:53:25;;;;;;;;;;;;;;;22.28;51.63;95196.50;10451407;28;1897;-68
2023/08/05 15:58:25;;;;;;;;;;;;;;;22.28;51.54;95180.66;10478944;28;2432;-68
2023/08/05 16:03:26;;;;;;;;;;;;;;;22.28;51.46;95164.03;10455426;28;1885;-68
2023/08/05 16:08:26;;;;;;;;;;;;;;;22.29;51.54;95162.97;10444998;28;1960;-67
2023/08/05 16:13:26;;;;;;;;;;;;;;;22.26;51.50;95164.34;10451106;28;1873;-67
2023/08/05 16:18:26;;;;;;;;;;;;;;;22.27;51.80;95171.19;10442226;28;1920;-67
2023/08/05 16:23:27;;;;;;;;;;;;;;;22.28;51.70;95164.81;10454586;28;2025;-69
2023/08/05 16:28:27;;;;;;;;;;;;;;;22.27;51.73;95168.56;10444450;28;1909;-68
2023/08/05 16:33:27;;;;;;;;;;;;;;;22.27;51.58;95171.19;10452108;28;1862;-67
2023/08/05 16:38:28;;;;;;;;;;;;;;;22.28;51.54;95175.38;10452150;28;1881;-68
2023/08/05 16:43:29;;;;;;;;;;;;;;;22.28;51.65;95169.31;10449790;28;4541;-68
2023/08/05 16:48:29;;;;;;;;;;;;;;;22.28;51.50;95166.69;10450910;28;1983;-67
2023/08/05 16:53:29;;;;;;;;;;;;;;;22.28;51.47;95166.69;10454711;28;2156;-67
2023/08/05 16:58:29;;;;;;;;;;;;;;;22.27;51.47;95170.41;10445193;28;1862;-67
2023/08/05 17:03:30;;;;;;;;;;;;;;;22.27;51.69;95176.47;10479554;28;1951;-67
2023/08/05 17:08:30;;;;;;;;;;;;;;;22.27;51.62;95170.41;10454822;28;2379;-68
2023/08/05 17:13:30;;;;;;;;;;;;;;;22.27;51.55;95154.56;10452022;28;2124;-67
2023/08/05 17:18:31;;;;;;;;;;;;;;;22.26;51.43;95156.41;10465506;28;2008;-67
2023/08/05 17:23:31;;;;;;;;;;;;;;;22.27;51.64;95170.41;10455825;28;1898;-67
2023/08/05 17:28:31;;;;;;;;;;;;;;;22.26;51.70;95156.41;10470385;28;1953;-67
2023/08/05 17:33:31;;;;;;;;;;;;;;;22.27;51.36;95155.38;10487743;28;1869;-69
2023/08/05 17:38:32;;;;;;;;;;;;;;;22.26;51.48;95150.34;10450922;28;1964;-67
2023/08/05 17:43:32;;;;;;;;;;;;;;;22.26;51.42;95150.34;10451400;28;4570;-67
2023/08/05 17:48:32;;;;;;;;;;;;;;;22.26;51.48;95145.88;10462993;28;2249;-67
2023/08/05 17:53:32;;;;;;;;;;;;;;;22.25;51.38;95146.97;10446828;28;2117;-67
2023/08/05 17:58:33;;;;;;;;;;;;;;;22.26;51.39;95153.00;10452023;28;2238;-68
2023/08/05 18:03:33;;;;;;;;;;;;;;;22.25;51.67;95154.09;10462016;28;1987;-67
2023/08/05 18:08:33;;;;;;;;;;;;;;;22.24;51.65;95150.66;10456330;28;1979;-67
2023/08/05 18:13:33;;;;;;;;;;;;;;;22.25;51.54;95160.16;10456644;28;2007;-67
2023/08/05 18:18:34;;;;;;;;;;;;;;;22.24;51.38;95158.59;10453564;28;1873;-67
2023/08/05 18:23:34;;;;;;;;;;;;;;;22.24;51.52;95157.78;10450328;28;2136;-68
2023/08/05 18:28:34;;;;;;;;;;;;;;;22.24;51.32;95144.59;10453744;28;1976;-66
2023/08/05 18:33:34;;;;;;;;;;;;;;;22.24;51.37;95144.59;10445360;28;2009;-66
2023/08/05 18:38:36;;;;;;;;;;;;;;;22.23;51.24;95133.28;10445022;28;1942;-67
2023/08/05 18:43:36;;;;;;;;;;;;;;;22.23;51.33;95128.00;10471889;28;4466;-66
2023/08/05 18:48:36;;;;;;;;;;;;;;;22.24;51.31;95126.13;10452187;28;1984;-67
2023/08/05 18:53:39;;;;;;;;;;;;;;;22.23;51.50;95125.34;10443036;28;2156;-67
2023/08/05 18:58:40;;;;;;;;;;;;;;;22.23;51.45;95135.91;10471937;28;1884;-67
2023/08/05 19:03:40;;;;;;;;;;;;;;;22.23;51.46;95140.41;10452685;28;2036;-67
2023/08/05 19:08:40;;;;;;;;;;;;;;;22.23;51.60;95145.69;10438140;28;1917;-67
2023/08/05 19:13:41;;;;;;;;;;;;;;;22.23;51.64;95151.75;10449554;28;2233;-68
2023/08/05 19:18:41;;;;;;;;;;;;;;;22.23;51.25;95148.31;10449574;28;2170;-67
2023/08/05 19:23:41;;;;;;;;;;;;;;;22.20;51.47;95141.78;10478765;28;1985;-67
2023/08/05 19:28:41;;;;;;;;;;;;;;;22.22;51.24;95147.53;10475218;28;2028;-67
2023/08/05 19:33:42;;;;;;;;;;;;;;;22.22;51.51;95152.81;10441488;28;1907;-67
2023/08/05 19:38:42;;;;;;;;;;;;;;;22.22;51.23;95152.03;10441554;28;2114;-67
2023/08/05 19:43:42;;;;;;;;;;;;;;;22.22;51.21;95150.19;10450049;28;4514;-67
2023/08/05 19:48:43;;;;;;;;;;;;;;;22.21;51.25;95146.00;10445608;28;1964;-67
2023/08/05 19:53:45;;;;;;;;;;;;;;;22.22;51.54;95146.75;10444194;28;1897;-67
2023/08/05 19:58:48;;;;;;;;;;;;;;;22.21;51.46;95142.56;10444155;28;2086;-67
2023/08/05 20:03:48;;;;;;;;;;;;;;;22.21;51.45;95129.38;10447760;28;1870;-67
2023/08/05 20:08:48;;;;;;;;;;;;;;;22.21;51.23;95124.88;10470441;28;2186;-68
2023/08/05 20:13:48;;;;;;;;;;;;;;;22.22;51.30;95125.63;10452994;28;2174;-66
2023/08/05 20:18:49;;;;;;;;;;;;;;;22.21;51.53;95124.88;10446851;28;1810;-67
2023/08/05 20:23:49;;;;;;;;;;;;;;;22.21;51.45;95114.31;10451034;28;2148;-67
2023/08/05 20:28:49;;;;;;;;;;;;;;;22.21;51.40;95108.25;10485906;28;1902;-67
2023/08/05 20:33:50;;;;;;;;;;;;;;;22.20;51.13;95107.47;10452632;28;1855;-66
2023/08/05 20:38:50;;;;;;;;;;;;;;;22.20;51.13;95102.19;10444707;28;2237;-66
2023/08/05 20:43:51;;;;;;;;;;;;;;;22.20;51.45;95099.53;10444528;28;4509;-66
2023/08/05 20:48:51;;;;;;;;;;;;;;;22.20;51.32;95093.47;10437646;28;2069;-67
2023/08/05 20:53:52;;;;;;;;;;;;;;;22.19;51.13;95084.78;10442655;28;1854;-67
2023/08/05 20:58:52;;;;;;;;;;;;;;;22.20;51.34;95083.69;10469522;28;2021;-67
2023/08/05 21:03:52;;;;;;;;;;;;;;;22.19;51.47;95082.16;10433755;28;2077;-67
2023/08/05 21:08:52;;;;;;;;;;;;;;;22.19;51.46;95084.00;10442378;28;1969;-67
2023/08/05 21:13:53;;;;;;;;;;;;;;;22.18;51.15;95080.56;10446233;28;1947;-67
2023/08/05 21:18:56;;;;;;;;;;;;;;;22.19;51.34;95089.28;10449758;28;1890;-67
2023/08/05 21:23:56;;;;;;;;;;;;;;;22.19;51.28;95084.78;10486624;28;2023;-67
2023/08/05 21:28:56;;;;;;;;;;;;;;;22.18;51.18;95085.84;10452337;28;2010;-67
2023/08/05 21:33:57;;;;;;;;;;;;;;;22.19;51.19;95086.66;10444770;28;2260;-67
2023/08/05 21:38:57;;;;;;;;;;;;;;;22.19;51.19;95091.94;10481848;28;1751;-66
2023/08/05 21:43:57;;;;;;;;;;;;;;;22.18;51.15;95082.44;10453170;28;4494;-67
2023/08/05 21:48:57;;;;;;;;;;;;;;;22.18;51.29;95085.84;10455282;28;1988;-67
2023/08/05 21:53:58;;;;;;;;;;;;;;;22.18;51.11;95083.22;10457094;28;1997;-67
2023/08/05 21:58:59;;;;;;;;;;;;;;;22.18;51.20;95083.22;10447210;28;1871;-67
2023/08/05 22:03:59;;;;;;;;;;;;;;;22.18;51.35;95087.72;10460219;28;1830;-67
2023/08/05 22:09:00;;;;;;;;;;;;;;;22.18;51.20;95085.84;10446024;28;2335;-67
2023/08/05 22:14:00;;;;;;;;;;;;;;;22.18;51.18;95087.72;10448476;28;2197;-67
2023/08/05 22:19:01;;;;;;;;;;;;;;;22.17;51.36;95094.09;10479095;28;1897;-67
2023/08/05 22:24:01;;;;;;;;;;;;;;;22.17;51.11;95081.69;10443215;28;2085;-67
2023/08/05 22:29:01;;;;;;;;;;;;;;;22.18;51.12;95077.16;10449466;28;2371;-67
2023/08/05 22:34:01;;;;;;;;;;;;;;;22.17;51.09;95076.41;10481700;28;2115;-66
2023/08/05 22:39:02;;;;;;;;;;;;;;;22.17;51.05;95072.97;10446079;28;1873;-67
2023/08/05 22:44:02;;;;;;;;;;;;;;;22.16;51.09;95064.25;10454949;28;4573;-69
2023/08/05 22:49:02;;;;;;;;;;;;;;;22.17;51.38;95049.22;10491235;28;2124;-67
2023/08/05 22:54:03;;;;;;;;;;;;;;;22.16;51.01;95037.88;10449310;28;1940;-67
2023/08/05 22:59:03;;;;;;;;;;;;;;;22.16;51.05;95032.59;10449616;28;1964;-68
2023/08/05 23:04:03;;;;;;;;;;;;;;;22.16;50.99;95019.38;10453612;28;1933;-68
2023/08/05 23:09:03;;;;;;;;;;;;;;;22.17;51.02;95020.19;10443743;28;2001;-68
2023/08/05 23:14:04;;;;;;;;;;;;;;;22.16;51.30;95011.47;10446344;28;2348;-67
2023/08/05 23:19:05;;;;;;;;;;;;;;;22.15;51.16;95009.91;10441107;28;2011;-67
2023/08/05 23:24:06;;;;;;;;;;;;;;;22.15;51.23;95004.66;10477062;28;2100;-68
2023/08/05 23:29:06;;;;;;;;;;;;;;;22.15;51.03;95001.22;10451684;28;2245;-68
2023/08/05 23:34:06;;;;;;;;;;;;;;;22.16;51.20;95003.53;10449898;28;2019;-68
2023/08/05 23:39:06;;;;;;;;;;;;;;;22.14;50.97;94995.16;10445746;28;1846;-68
2023/08/05 23:44:07;;;;;;;;;;;;;;;22.15;51.28;95009.91;10444431;28;4486;-68
2023/08/05 23:49:07;;;;;;;;;;;;;;;22.15;51.16;95009.91;10447273;28;2001;-68
2023/08/05 23:54:07;;;;;;;;;;;;;;;22.14;50.96;95010.19;10441704;28;1877;-68
2023/08/05 23:59:07;;;;;;;;;;;;;;;22.13;50.90;95006.81;10440154;28;1889;-68
